Terminal Aerodrome Forecast
Issued by NWS Pittsburgh, PA

Current Version | Previous Version | Text Only | Print | Product List | Glossary Off
Versions: 1 2 3 4 5 6 7 8 9 10 11 12 13 14 15 16 17 18 19 20 21 22 23 24 25 26 27

909
FTUS41 KPBZ 191120
TAFPIT
TAF
KPIT 191120Z 1912/2018 34012G20KT 2SM -SHSN OVC006
     FM191500 33012G29KT 3SM -SHSN OVC005
     FM191800 32013G30KT P6SM VCSH BKN025
     FM192200 31010KT P6SM BKN025
     FM201400 32012KT P6SM BKN035=

USA.gov is the U.S. government's official web portal to all federal, state and local government web resources and services.